Mason Neck, Virginia
Current Conditions -  °F | °C
As of 11:58 AM on Saturday 22 Nov 2014 (Local Time) from KDAA Reporting Station
Clear Clear  
Wind Chill: 37°   Ceiling: Unl
Heat Index: 43°   Visibility: 10mi
Dew Point: 16°   Wind: 12mph
Humidity: 33%   Direction: 200°SSW
Pressure: 30.44"   Gusts: NA
Location:  38.6817°N, 77.2042°W
Report Text: KDAA 221658Z AUTO 20010KT 10SM CLR 06/M09 A3044 RMK AO2 SLP312 T00621091
Loading
Personal Weather Stations






























Interactive Weather Map New forecast layout! Learn more

10-Day Weather Forecast

Advertisements
Track Severe Weather on mobile